createdAt,value
2019-02-10T00:01:50.438Z,56.40
2019-02-10T00:04:19.897Z,54.27
2019-02-10T00:06:50.432Z,55.88
2019-02-10T00:09:19.904Z,65.03
2019-02-10T00:11:49.379Z,51.60
2019-02-10T00:14:18.868Z,60.30
2019-02-10T00:16:48.373Z,54.35
2019-02-10T00:19:53.669Z,56.33
2019-02-10T00:22:23.325Z,57.15
2019-02-10T00:24:53.801Z,55.88
2019-02-10T00:27:23.528Z,58.00
2019-02-10T00:29:53.920Z,59.30
2019-02-10T00:32:23.696Z,60.35
2019-02-10T00:34:53.291Z,57.35
2019-02-10T00:37:22.751Z,56.13
2019-02-10T00:39:52.438Z,54.53
2019-02-10T00:42:21.861Z,56.13
2019-02-10T00:44:51.315Z,54.98
2019-02-10T00:47:21.114Z,51.33
2019-02-10T00:49:50.818Z,57.38
2019-02-10T00:52:20.483Z,55.67
2019-02-10T00:54:50.087Z,55.35
2019-02-10T00:57:19.931Z,54.95
2019-02-10T00:59:49.435Z,56.35
2019-02-10T01:02:19.325Z,56.23
2019-02-10T01:04:48.988Z,52.38
2019-02-10T01:07:18.711Z,56.45
2019-02-10T01:09:48.427Z,56.05
2019-02-10T01:12:19.000Z,50.92
2019-02-10T01:14:48.555Z,53.53
2019-02-10T01:17:18.026Z,56.05
2019-02-10T01:19:47.746Z,60.70
2019-02-10T01:22:17.265Z,58.70
2019-02-10T01:24:46.725Z,53.80
2019-02-10T01:27:16.370Z,54.30
2019-02-10T01:29:45.833Z,55.85
2019-02-10T01:32:15.276Z,48.75
2019-02-10T01:34:45.211Z,49.95
2019-02-10T01:37:15.052Z,53.27
2019-02-10T01:39:44.604Z,52.30
2019-02-10T01:42:14.045Z,56.37
2019-02-10T01:44:43.888Z,53.70
2019-02-10T01:47:13.495Z,58.73
2019-02-10T01:49:43.812Z,57.67
2019-02-10T01:52:13.411Z,54.85
2019-02-10T01:54:42.902Z,51.95
2019-02-10T01:57:12.341Z,51.35
2019-02-10T01:59:42.206Z,59.55
2019-02-10T02:02:11.720Z,52.73
2019-02-10T02:04:42.828Z,51.25
2019-02-10T02:07:12.445Z,54.65
2019-02-10T02:09:41.955Z,52.40
2019-02-10T02:12:11.447Z,55.83
2019-02-10T02:14:40.869Z,54.90
2019-02-10T02:17:10.478Z,56.37
2019-02-10T02:19:39.894Z,52.58
2019-02-10T02:22:09.370Z,51.45
2019-02-10T02:24:39.115Z,55.00
2019-02-10T02:27:08.527Z,53.50
2019-02-10T02:29:37.973Z,56.70
2019-02-10T02:32:07.704Z,53.70
2019-02-10T02:34:37.174Z,53.00
2019-02-10T02:37:08.312Z,50.60
2019-02-10T02:39:37.821Z,56.87
2019-02-10T02:42:07.418Z,51.92
2019-02-10T02:44:36.967Z,49.13
2019-02-10T02:47:06.472Z,53.23
2019-02-10T02:49:36.214Z,54.13
2019-02-10T02:52:05.693Z,53.15
2019-02-10T02:54:35.141Z,51.83
2019-02-10T02:57:04.989Z,52.43
2019-02-10T02:59:34.426Z,49.53
2019-02-10T03:02:03.889Z,48.55
2019-02-10T03:04:33.940Z,51.15
2019-02-10T03:07:03.947Z,50.17
2019-02-10T03:09:33.413Z,51.10
2019-02-10T03:12:03.038Z,48.68
2019-02-10T03:14:32.520Z,48.83
2019-02-10T03:17:02.576Z,47.53
2019-02-10T03:19:32.017Z,45.73
2019-02-10T03:22:01.468Z,49.75
2019-02-10T03:24:31.430Z,46.45
2019-02-10T03:27:00.946Z,50.03
2019-02-10T03:29:30.650Z,46.18
2019-02-10T03:32:00.092Z,47.48
2019-02-10T03:34:29.849Z,47.58
2019-02-10T03:36:59.299Z,44.98
2019-02-10T03:39:28.777Z,43.20
2019-02-10T03:41:58.496Z,43.23
2019-02-10T03:44:27.926Z,42.00
2019-02-10T03:46:57.414Z,42.00
2019-02-10T03:49:27.196Z,41.13
2019-02-10T03:51:56.660Z,35.90
2019-02-10T03:54:26.127Z,42.03
2019-02-10T03:56:55.782Z,37.55
2019-02-10T03:59:25.261Z,42.23
2019-02-10T04:01:54.806Z,38.90
2019-02-10T04:04:24.598Z,41.23
2019-02-10T04:06:54.026Z,39.92
2019-02-10T04:09:23.571Z,39.92
2019-02-10T04:11:53.489Z,37.23
2019-02-10T04:14:22.955Z,37.73
2019-02-10T04:16:52.658Z,41.42
2019-02-10T04:19:22.129Z,38.88
2019-02-10T04:21:51.540Z,36.68
2019-02-10T04:24:21.393Z,35.63
2019-02-10T04:26:50.800Z,40.20
2019-02-10T04:29:20.211Z,39.42
2019-02-10T04:31:50.087Z,36.67
2019-02-10T04:34:19.531Z,36.85
2019-02-10T04:36:49.273Z,39.48
2019-02-10T04:39:18.717Z,37.88
2019-02-10T04:41:48.154Z,38.42
2019-02-10T04:44:18.022Z,38.33
2019-02-10T04:46:47.587Z,42.53
2019-02-10T04:49:17.075Z,40.43
2019-02-10T04:51:46.646Z,37.83
2019-02-10T04:54:16.058Z,35.25
2019-02-10T04:56:45.495Z,37.20
2019-02-10T04:59:15.341Z,35.20
2019-02-10T05:01:44.732Z,32.78
2019-02-10T05:04:14.159Z,33.30
2019-02-10T05:06:43.881Z,32.67
2019-02-10T05:09:13.328Z,34.55
2019-02-10T05:11:42.771Z,35.00
2019-02-10T05:14:12.492Z,39.13
2019-02-10T05:16:41.971Z,36.65
2019-02-10T05:19:11.383Z,38.02
2019-02-10T05:21:41.227Z,34.43
2019-02-10T05:24:10.664Z,34.33
2019-02-10T05:26:40.150Z,37.58
2019-02-10T05:29:09.920Z,32.57
2019-02-10T05:31:39.566Z,34.30
2019-02-10T05:34:09.238Z,35.63
2019-02-10T05:36:38.967Z,32.60
2019-02-10T05:39:08.682Z,35.85
2019-02-10T05:41:38.118Z,34.88
2019-02-10T05:44:07.598Z,34.88
2019-02-10T05:46:37.277Z,34.70
2019-02-10T05:49:06.860Z,31.17
2019-02-10T05:51:36.310Z,34.58
2019-02-10T05:54:05.876Z,37.13
2019-02-10T05:56:35.364Z,38.53
2019-02-10T05:59:05.215Z,33.85
2019-02-10T06:02:36.865Z,35.03
2019-02-10T06:05:27.045Z,32.65
2019-02-10T06:07:56.438Z,34.33
2019-02-10T06:10:26.090Z,35.92
2019-02-10T06:12:55.500Z,33.18
2019-02-10T06:15:25.033Z,34.90
2019-02-10T06:17:54.764Z,34.38
2019-02-10T06:20:24.264Z,32.10
2019-02-10T06:22:54.147Z,34.30
2019-02-10T06:25:23.645Z,37.33
2019-02-10T06:27:53.471Z,32.40
2019-02-10T06:30:24.949Z,31.00
2019-02-10T06:32:54.743Z,37.75
2019-02-10T06:35:24.225Z,34.85
2019-02-10T06:37:53.756Z,32.67
2019-02-10T06:40:23.497Z,32.65
2019-02-10T06:42:52.974Z,34.58
2019-02-10T06:45:23.326Z,36.98
2019-02-10T06:47:52.920Z,30.97
2019-02-10T06:50:22.477Z,33.13
2019-02-10T06:52:51.965Z,29.48
2019-02-10T06:55:21.814Z,35.97
2019-02-10T06:57:51.279Z,30.33
2019-02-10T07:00:38.608Z,32.53
2019-02-10T07:03:51.604Z,33.28
2019-02-10T07:06:21.124Z,30.17
2019-02-10T07:08:50.591Z,28.37
2019-02-10T07:11:20.067Z,31.33
2019-02-10T07:13:54.902Z,32.13
2019-02-10T07:16:42.582Z,26.73
2019-02-10T07:19:47.778Z,27.20
2019-02-10T07:23:00.164Z,25.97
2019-02-10T07:25:55.804Z,28.00
2019-02-10T07:29:05.864Z,50.63
2019-02-10T07:31:56.402Z,26.68
2019-02-10T07:35:09.638Z,25.00
2019-02-10T07:38:38.710Z,25.60
2019-02-10T07:41:40.665Z,26.20
2019-02-10T07:45:00.347Z,25.60
2019-02-10T07:47:51.079Z,31.17
2019-02-10T07:50:54.204Z,25.23
2019-02-10T07:53:48.061Z,27.13
2019-02-10T07:57:04.924Z,27.48
2019-02-10T07:59:59.991Z,26.57
2019-02-10T08:02:59.029Z,28.90
2019-02-10T08:06:11.195Z,27.50
2019-02-10T08:09:02.589Z,27.50
2019-02-10T08:12:17.460Z,26.80
2019-02-10T08:15:20.599Z,27.77
2019-02-10T08:18:11.058Z,25.27
2019-02-10T08:21:07.024Z,25.50
2019-02-10T08:24:23.613Z,27.60
2019-02-10T08:27:43.131Z,22.85
2019-02-10T08:30:37.115Z,25.70
2019-02-10T08:33:16.075Z,25.68
2019-02-10T08:36:06.219Z,25.93
2019-02-10T08:39:14.016Z,25.23
2019-02-10T08:42:03.648Z,23.30
2019-02-10T08:45:20.221Z,26.52
2019-02-10T08:48:22.192Z,22.62
2019-02-10T08:51:21.764Z,23.80
2019-02-10T08:53:51.229Z,23.77
2019-02-10T08:56:21.185Z,22.90
2019-02-10T08:58:50.721Z,24.90
2019-02-10T09:01:20.888Z,26.57
2019-02-10T09:03:50.781Z,25.57
2019-02-10T09:06:20.225Z,25.08
2019-02-10T09:08:50.026Z,23.47
2019-02-10T09:11:40.864Z,23.52
2019-02-10T09:14:03.017Z,24.20
2019-02-10T09:16:32.446Z,27.93
2019-02-10T09:19:01.940Z,25.77
2019-02-10T09:21:31.783Z,25.27
2019-02-10T09:24:01.415Z,25.02
2019-02-10T09:26:31.233Z,28.87
2019-02-10T09:29:00.715Z,25.77
2019-02-10T09:31:30.604Z,22.90
2019-02-10T09:34:00.068Z,27.02
2019-02-10T09:36:29.529Z,25.82
2019-02-10T09:38:59.290Z,23.90
2019-02-10T09:41:28.765Z,23.92
2019-02-10T09:43:58.214Z,23.90
2019-02-10T09:46:27.862Z,26.95
2019-02-10T09:48:57.292Z,30.65
2019-02-10T09:51:26.853Z,28.60
2019-02-10T09:53:56.432Z,28.12
2019-02-10T09:56:25.956Z,26.87
2019-02-10T09:58:56.822Z,27.10
2019-02-10T10:01:26.327Z,25.32
2019-02-10T10:03:56.072Z,26.23
2019-02-10T10:06:25.552Z,25.72
2019-02-10T10:08:55.394Z,22.62
2019-02-10T10:11:24.892Z,25.15
2019-02-10T10:13:54.438Z,21.10
2019-02-10T10:16:23.858Z,24.63
2019-02-10T10:18:53.926Z,24.07
2019-02-10T10:21:23.768Z,24.63
2019-02-10T10:23:53.304Z,22.70
2019-02-10T10:26:23.444Z,24.32
2019-02-10T10:28:52.911Z,24.37
2019-02-10T10:31:22.983Z,24.32
2019-02-10T10:33:52.815Z,24.87
2019-02-10T10:36:22.271Z,20.37
2019-02-10T10:38:52.083Z,25.05
2019-02-10T10:41:21.571Z,22.87
2019-02-10T10:43:51.231Z,19.42
2019-02-10T10:46:20.838Z,22.37
2019-02-10T10:48:50.321Z,18.77
2019-02-10T10:51:19.796Z,21.60
2019-02-10T10:53:50.021Z,19.25
2019-02-10T10:56:19.866Z,20.25
2019-02-10T10:58:49.386Z,19.98
2019-02-10T11:01:25.196Z,17.45
2019-02-10T11:03:51.315Z,19.15
2019-02-10T11:06:20.816Z,16.90
2019-02-10T11:08:50.294Z,18.17
2019-02-10T11:11:20.025Z,22.87
2019-02-10T11:13:49.445Z,24.85
2019-02-10T11:16:18.984Z,26.60
2019-02-10T11:18:49.099Z,22.87
2019-02-10T11:21:19.211Z,23.05
2019-02-10T11:23:48.904Z,26.93
2019-02-10T11:26:18.370Z,26.00
2019-02-10T11:28:47.847Z,21.52
2019-02-10T11:31:20.466Z,23.73
2019-02-10T11:33:51.049Z,24.43
2019-02-10T11:36:20.663Z,25.00
2019-02-10T11:38:50.202Z,93.72
2019-02-10T11:41:19.689Z,175.27
2019-02-10T11:43:49.354Z,56.55
2019-02-10T11:46:18.855Z,84.55
2019-02-10T11:48:48.407Z,145.27
2019-02-10T11:51:18.691Z,177.22
2019-02-10T11:53:48.311Z,25.53
2019-02-10T11:56:18.081Z,38.50
2019-02-10T11:58:48.228Z,80.75
2019-02-10T12:01:17.865Z,60.78
2019-02-10T12:03:47.439Z,126.72
2019-02-10T12:06:16.905Z,27.05
2019-02-10T12:08:46.644Z,35.40
2019-02-10T12:11:16.105Z,33.78
2019-02-10T12:13:45.559Z,29.90
2019-02-10T12:16:15.197Z,30.20
2019-02-10T12:18:44.648Z,28.45
2019-02-10T12:21:14.167Z,47.98
2019-02-10T12:23:43.874Z,29.12
2019-02-10T12:26:13.434Z,253.02
2019-02-10T12:28:43.068Z,51.07
2019-02-10T12:31:12.702Z,281.47
2019-02-10T12:33:42.171Z,32.70
2019-02-10T12:36:11.831Z,21.42
2019-02-10T12:38:41.282Z,48.75
2019-02-10T12:41:10.829Z,24.10
2019-02-10T12:43:41.025Z,23.12
2019-02-10T12:46:10.749Z,28.17
2019-02-10T12:48:40.248Z,26.85
2019-02-10T12:51:09.707Z,18.70
2019-02-10T12:53:39.460Z,21.15
2019-02-10T12:56:08.978Z,23.90
2019-02-10T12:58:38.781Z,30.20
2019-02-10T13:01:08.233Z,25.02
2019-02-10T13:03:37.695Z,28.02
2019-02-10T13:06:07.419Z,38.05
2019-02-10T13:08:36.875Z,30.12
2019-02-10T13:11:06.341Z,46.45
2019-02-10T13:13:36.049Z,24.65
2019-02-10T13:16:05.658Z,25.30
2019-02-10T13:18:35.269Z,18.32
2019-02-10T13:21:04.825Z,26.00
2019-02-10T13:23:34.328Z,55.43
2019-02-10T13:26:03.898Z,35.03
2019-02-10T13:28:33.417Z,29.67
2019-02-10T13:31:02.965Z,30.03
2019-02-10T13:33:32.733Z,51.53
2019-02-10T13:36:02.297Z,36.65
2019-02-10T13:38:31.929Z,36.85
2019-02-10T13:41:01.510Z,96.24
2019-02-10T13:43:33.630Z,29.93
2019-02-10T13:46:02.207Z,27.73
2019-02-10T13:48:31.644Z,24.90
2019-02-10T13:51:01.394Z,32.28
2019-02-10T13:53:30.888Z,31.52
2019-02-10T13:56:00.771Z,38.40
2019-02-10T13:58:30.208Z,34.03
2019-02-10T14:00:59.823Z,37.03
2019-02-10T14:03:29.454Z,34.92
2019-02-10T14:05:58.994Z,35.05
2019-02-10T14:08:28.732Z,28.12
2019-02-10T14:10:58.207Z,36.50
2019-02-10T14:13:27.769Z,32.75
2019-02-10T14:15:57.620Z,35.95
2019-02-10T14:18:27.572Z,43.17
2019-02-10T14:20:57.268Z,36.23
2019-02-10T14:23:27.220Z,32.08
2019-02-10T14:25:56.641Z,33.85
2019-02-10T14:28:26.381Z,31.82
2019-02-10T14:30:55.871Z,32.35
2019-02-10T14:33:25.753Z,36.33
2019-02-10T14:35:55.282Z,35.43
2019-02-10T14:38:24.850Z,46.73
2019-02-10T14:40:54.675Z,36.65
2019-02-10T14:43:24.133Z,37.40
2019-02-10T14:45:53.899Z,47.55
2019-02-10T14:48:23.364Z,45.52
2019-02-10T14:50:52.899Z,42.60
2019-02-10T14:53:22.398Z,32.83
2019-02-10T14:55:51.944Z,34.15
2019-02-10T14:58:21.331Z,37.10
2019-02-10T15:00:51.281Z,289.75
2019-02-10T15:03:20.793Z,495.55
2019-02-10T15:05:50.650Z,301.42
2019-02-10T15:08:20.154Z,378.57
2019-02-10T15:10:50.540Z,970.90
2019-02-10T15:13:21.356Z,520.45
2019-02-10T15:15:51.254Z,1036.30
2019-02-10T15:18:20.822Z,1999.90
2019-02-10T15:20:50.314Z,697.60
2019-02-10T15:23:19.956Z,178.45
2019-02-10T15:25:49.450Z,267.93
2019-02-10T15:28:18.893Z,226.00
2019-02-10T15:30:48.914Z,240.12
2019-02-10T15:33:18.905Z,492.70
2019-02-10T15:35:48.432Z,150.68
2019-02-10T15:38:17.843Z,310.75
2019-02-10T15:40:49.999Z,196.30
2019-02-10T15:43:18.782Z,44.00
2019-02-10T15:45:48.357Z,134.50
2019-02-10T15:48:18.140Z,58.35
2019-02-10T15:50:47.736Z,206.13
2019-02-10T15:53:17.569Z,44.08
2019-02-10T15:55:47.125Z,136.97
2019-02-10T15:58:17.195Z,301.35
2019-02-10T16:00:47.054Z,322.20
2019-02-10T16:03:16.694Z,193.60
2019-02-10T16:05:46.397Z,141.93
2019-02-10T16:08:15.957Z,85.28
2019-02-10T16:10:45.513Z,179.57
2019-02-10T16:13:15.129Z,227.40
2019-02-10T16:15:45.062Z,166.60
2019-02-10T16:18:14.807Z,106.00
2019-02-10T16:20:44.804Z,70.60
2019-02-10T16:23:14.274Z,50.50
2019-02-10T16:25:43.825Z,55.15
2019-02-10T16:28:13.385Z,67.82
2019-02-10T16:30:42.980Z,76.63
2019-02-10T16:33:12.482Z,146.15
2019-02-10T16:35:42.179Z,124.07
2019-02-10T16:38:11.610Z,90.60
2019-02-10T16:40:41.367Z,188.57
2019-02-10T16:43:10.854Z,145.75
2019-02-10T16:45:40.386Z,82.30
2019-02-10T16:48:10.018Z,109.40
2019-02-10T16:50:39.498Z,50.12
2019-02-10T16:53:09.046Z,73.05
2019-02-10T16:55:38.664Z,58.13
2019-02-10T16:58:08.127Z,57.93
2019-02-10T17:00:37.620Z,57.23
2019-02-10T17:03:07.839Z,66.23
2019-02-10T17:05:37.499Z,60.10
2019-02-10T17:08:06.944Z,62.30
2019-02-10T17:10:36.396Z,59.90
2019-02-10T17:13:06.332Z,63.15
2019-02-10T17:15:35.819Z,57.45
2019-02-10T17:18:05.545Z,57.13
2019-02-10T17:20:34.989Z,56.00
2019-02-10T17:23:04.709Z,60.67
2019-02-10T17:25:34.222Z,62.35
2019-02-10T17:28:03.945Z,64.47
2019-02-10T17:30:33.774Z,192.67
2019-02-10T17:33:03.287Z,335.87
2019-02-10T17:35:33.128Z,625.10
2019-02-10T17:38:02.806Z,157.65
2019-02-10T17:40:37.445Z,184.72
2019-02-10T17:43:07.102Z,217.65
2019-02-10T17:45:36.988Z,172.82
2019-02-10T17:48:06.478Z,254.05
2019-02-10T17:50:36.277Z,94.83
2019-02-10T17:53:05.852Z,106.43
2019-02-10T17:55:35.745Z,107.25
2019-02-10T17:58:05.937Z,139.57
2019-02-10T18:00:39.895Z,148.35
2019-02-10T18:03:09.370Z,179.10
2019-02-10T18:05:39.231Z,132.90
2019-02-10T18:08:08.757Z,161.60
2019-02-10T18:10:38.269Z,125.62
2019-02-10T18:13:07.954Z,146.63
2019-02-10T18:15:55.284Z,289.10
2019-02-10T18:18:47.071Z,458.72
2019-02-10T18:21:44.719Z,429.70
2019-02-10T18:24:32.082Z,130.87
2019-02-10T18:27:23.595Z,57.50
2019-02-10T18:30:11.996Z,59.80
2019-02-10T18:33:04.514Z,57.33
2019-02-10T18:35:51.552Z,55.63
2019-02-10T18:38:29.279Z,54.60
2019-02-10T18:41:16.657Z,49.58
2019-02-10T18:44:00.275Z,63.65
2019-02-10T18:46:47.639Z,53.10
2019-02-10T18:49:36.301Z,52.40
2019-02-10T18:52:24.723Z,55.38
2019-02-10T18:55:17.775Z,53.33
2019-02-10T18:57:54.906Z,52.10
2019-02-10T19:00:33.930Z,55.03
2019-02-10T19:03:22.361Z,49.97
2019-02-10T19:06:08.240Z,51.92
2019-02-10T19:08:49.797Z,49.98
2019-02-10T19:11:36.958Z,49.60
2019-02-10T19:14:25.393Z,54.15
2019-02-10T19:17:12.997Z,60.05
2019-02-10T19:20:05.065Z,49.60
2019-02-10T19:22:54.425Z,53.42
2019-02-10T19:25:51.815Z,48.03
2019-02-10T19:28:43.119Z,50.60
2019-02-10T19:31:34.457Z,50.17
2019-02-10T19:34:21.770Z,54.08
2019-02-10T19:37:13.302Z,55.67
2019-02-10T19:40:01.878Z,57.53
2019-02-10T19:42:40.206Z,62.20
2019-02-10T19:45:31.913Z,68.83
2019-02-10T19:48:25.611Z,75.28
2019-02-10T19:51:12.973Z,74.30
2019-02-10T19:53:50.400Z,74.85
2019-02-10T19:56:42.392Z,64.47
2019-02-10T19:59:49.264Z,69.40
2019-02-10T20:02:41.382Z,61.65
2019-02-10T20:05:28.562Z,60.23
2019-02-10T20:08:16.969Z,59.53
2019-02-10T20:11:08.183Z,53.70
2019-02-10T20:13:44.776Z,64.53
2019-02-10T20:16:29.887Z,64.12
2019-02-10T20:19:09.773Z,58.78
2019-02-10T20:21:57.156Z,60.23
2019-02-10T20:24:41.492Z,62.95
2019-02-10T20:27:28.653Z,59.30
2019-02-10T20:30:08.021Z,68.87
2019-02-10T20:32:49.954Z,56.02
2019-02-10T20:35:31.747Z,58.05
2019-02-10T20:38:24.572Z,59.95
2019-02-10T20:41:11.967Z,62.10
2019-02-10T20:44:08.805Z,56.28
2019-02-10T20:46:56.040Z,59.15
2019-02-10T20:49:34.270Z,61.90
2019-02-10T20:52:25.754Z,61.25
2019-02-10T20:55:14.159Z,61.30
2019-02-10T20:57:50.007Z,61.88
2019-02-10T21:00:37.472Z,62.23
2019-02-10T21:03:19.760Z,115.67
2019-02-10T21:06:17.543Z,237.38
2019-02-10T21:09:01.768Z,59.80
2019-02-10T21:11:50.228Z,63.15
2019-02-10T21:14:41.458Z,102.20
2019-02-10T21:17:36.134Z,134.43
2019-02-10T21:20:32.020Z,662.17
2019-02-10T21:23:09.247Z,556.60
2019-02-10T21:25:56.530Z,159.10
2019-02-10T21:28:36.344Z,330.57
2019-02-10T21:31:26.285Z,295.88
2019-02-10T21:34:04.630Z,327.47
2019-02-10T21:36:42.779Z,626.85
2019-02-10T21:39:43.358Z,562.25
2019-02-10T21:42:46.821Z,179.00
2019-02-10T21:45:47.379Z,346.62
2019-02-10T21:48:23.952Z,140.52
2019-02-10T21:50:53.386Z,119.13
2019-02-10T21:53:22.932Z,325.45
2019-02-10T21:55:52.513Z,184.55
2019-02-10T21:58:22.177Z,197.07
2019-02-10T22:00:52.285Z,81.08
2019-02-10T22:03:22.081Z,99.45
2019-02-10T22:05:51.659Z,299.40
2019-02-10T22:08:21.611Z,117.37
2019-02-10T22:10:51.124Z,156.83
2019-02-10T22:13:20.783Z,106.22
2019-02-10T22:15:50.265Z,77.58
2019-02-10T22:18:19.747Z,72.82
2019-02-10T22:20:49.374Z,84.03
2019-02-10T22:23:18.839Z,64.10
2019-02-10T22:25:48.379Z,99.58
2019-02-10T22:28:17.992Z,129.15
2019-02-10T22:30:47.402Z,155.12
2019-02-10T22:33:16.877Z,96.08
2019-02-10T22:35:46.335Z,105.07
2019-02-10T22:38:16.568Z,74.45
2019-02-10T22:40:46.334Z,75.40
2019-02-10T22:43:15.727Z,97.02
2019-02-10T22:45:45.743Z,81.90
2019-02-10T22:48:15.193Z,70.17
2019-02-10T22:50:44.644Z,85.35
2019-02-10T22:53:14.409Z,197.75
2019-02-10T22:55:43.955Z,140.90
2019-02-10T22:58:13.577Z,61.67
2019-02-10T23:00:55.309Z,85.15
2019-02-10T23:03:24.909Z,75.65
2019-02-10T23:05:54.590Z,74.85
2019-02-10T23:08:24.369Z,84.97
2019-02-10T23:10:53.978Z,186.52
2019-02-10T23:13:23.564Z,174.23
2019-02-10T23:15:52.984Z,205.47
2019-02-10T23:18:22.509Z,80.35
2019-02-10T23:20:52.164Z,82.27
2019-02-10T23:23:21.610Z,164.00
2019-02-10T23:25:51.176Z,92.27
2019-02-10T23:28:20.780Z,187.75
2019-02-10T23:30:50.325Z,78.07
2019-02-10T23:33:20.681Z,104.72
2019-02-10T23:35:50.126Z,96.82
2019-02-10T23:38:19.899Z,89.52
2019-02-10T23:40:49.357Z,87.02
2019-02-10T23:43:19.098Z,63.40
2019-02-10T23:45:48.568Z,79.03
2019-02-10T23:48:17.999Z,61.08
2019-02-10T23:50:47.892Z,140.00
2019-02-10T23:53:17.312Z,61.65
2019-02-10T23:55:46.804Z,72.32
2019-02-10T23:58:16.621Z,70.28
